sensor_id;sensor_type;location;lat;lon;timestamp;temperature;humidity
37412;DHT22;23278;52.110;6.050;2022-12-08T00:01:09;4.00;99.90
37412;DHT22;23278;52.110;6.050;2022-12-08T00:03:35;4.10;99.90
37412;DHT22;23278;52.110;6.050;2022-12-08T00:06:03;4.10;99.90
37412;DHT22;23278;52.110;6.050;2022-12-08T00:08:48;4.10;99.90
37412;DHT22;23278;52.110;6.050;2022-12-08T00:11:33;4.10;99.90
37412;DHT22;23278;52.110;6.050;2022-12-08T00:13:59;4.00;99.90
37412;DHT22;23278;52.110;6.050;2022-12-08T00:16:25;4.00;99.90
37412;DHT22;23278;52.110;6.050;2022-12-08T00:18:51;4.00;99.90
37412;DHT22;23278;52.110;6.050;2022-12-08T00:21:17;4.00;99.90
37412;DHT22;23278;52.110;6.050;2022-12-08T00:23:43;4.00;99.90
37412;DHT22;23278;52.110;6.050;2022-12-08T00:26:09;4.00;99.90
37412;DHT22;23278;52.110;6.050;2022-12-08T00:28:35;4.00;99.90
37412;DHT22;23278;52.110;6.050;2022-12-08T00:31:10;4.10;99.90
37412;DHT22;23278;52.110;6.050;2022-12-08T00:33:36;4.10;99.90
37412;DHT22;23278;52.110;6.050;2022-12-08T00:36:06;4.10;99.90
37412;DHT22;23278;52.110;6.050;2022-12-08T00:38:33;4.10;99.90
37412;DHT22;23278;52.110;6.050;2022-12-08T00:40:59;4.20;99.90
37412;DHT22;23278;52.110;6.050;2022-12-08T00:43:24;4.30;99.90
37412;DHT22;23278;52.110;6.050;2022-12-08T00:45:51;4.30;99.90
37412;DHT22;23278;52.110;6.050;2022-12-08T00:48:17;4.40;99.90
37412;DHT22;23278;52.110;6.050;2022-12-08T00:50:43;4.40;99.90
37412;DHT22;23278;52.110;6.050;2022-12-08T00:53:09;4.50;99.90
37412;DHT22;23278;52.110;6.050;2022-12-08T00:55:34;4.60;99.90
37412;DHT22;23278;52.110;6.050;2022-12-08T00:58:00;4.60;99.90
37412;DHT22;23278;52.110;6.050;2022-12-08T01:00:26;4.60;99.90
37412;DHT22;23278;52.110;6.050;2022-12-08T01:02:52;4.60;99.90
37412;DHT22;23278;52.110;6.050;2022-12-08T01:05:18;4.50;99.90
37412;DHT22;23278;52.110;6.050;2022-12-08T01:07:44;4.50;99.90
37412;DHT22;23278;52.110;6.050;2022-12-08T01:10:10;4.40;99.90
37412;DHT22;23278;52.110;6.050;2022-12-08T01:12:36;4.40;99.90
37412;DHT22;23278;52.110;6.050;2022-12-08T01:15:02;4.40;99.90
37412;DHT22;23278;52.110;6.050;2022-12-08T01:17:28;4.40;99.90
37412;DHT22;23278;52.110;6.050;2022-12-08T01:19:54;4.40;99.90
37412;DHT22;23278;52.110;6.050;2022-12-08T01:22:20;4.40;99.90
37412;DHT22;23278;52.110;6.050;2022-12-08T01:24:46;4.50;99.90
37412;DHT22;23278;52.110;6.050;2022-12-08T01:27:14;4.50;99.90
37412;DHT22;23278;52.110;6.050;2022-12-08T01:29:40;4.50;99.90
37412;DHT22;23278;52.110;6.050;2022-12-08T01:32:07;4.60;99.90
37412;DHT22;23278;52.110;6.050;2022-12-08T01:34:33;4.60;99.90
37412;DHT22;23278;52.110;6.050;2022-12-08T01:36:59;4.60;99.90
37412;DHT22;23278;52.110;6.050;2022-12-08T01:39:25;4.50;99.90
37412;DHT22;23278;52.110;6.050;2022-12-08T01:41:51;4.50;99.90
37412;DHT22;23278;52.110;6.050;2022-12-08T01:46:44;4.50;99.90
37412;DHT22;23278;52.110;6.050;2022-12-08T01:49:22;4.50;99.90
37412;DHT22;23278;52.110;6.050;2022-12-08T01:51:59;4.40;99.90
37412;DHT22;23278;52.110;6.050;2022-12-08T01:54:31;4.50;99.90
37412;DHT22;23278;52.110;6.050;2022-12-08T01:57:07;4.40;99.90
37412;DHT22;23278;52.110;6.050;2022-12-08T01:59:38;4.40;99.90
37412;DHT22;23278;52.110;6.050;2022-12-08T02:02:08;4.40;99.90
37412;DHT22;23278;52.110;6.050;2022-12-08T02:04:34;4.40;99.90
37412;DHT22;23278;52.110;6.050;2022-12-08T02:07:00;4.40;99.90
37412;DHT22;23278;52.110;6.050;2022-12-08T02:09:26;4.40;99.90
37412;DHT22;23278;52.110;6.050;2022-12-08T02:11:54;4.50;99.90
37412;DHT22;23278;52.110;6.050;2022-12-08T02:14:21;4.40;99.90
37412;DHT22;23278;52.110;6.050;2022-12-08T02:22:47;4.50;99.90
37412;DHT22;23278;52.110;6.050;2022-12-08T02:39:02;4.60;99.90
37412;DHT22;23278;52.110;6.050;2022-12-08T02:41:51;4.60;99.90
37412;DHT22;23278;52.110;6.050;2022-12-08T02:44:27;4.60;99.90
37412;DHT22;23278;52.110;6.050;2022-12-08T02:47:04;4.60;99.90
37412;DHT22;23278;52.110;6.050;2022-12-08T02:49:32;4.60;99.90
37412;DHT22;23278;52.110;6.050;2022-12-08T02:54:31;4.70;99.90
37412;DHT22;23278;52.110;6.050;2022-12-08T03:00:13;4.70;99.90
37412;DHT22;23278;52.110;6.050;2022-12-08T03:03:12;4.60;99.90
37412;DHT22;23278;52.110;6.050;2022-12-08T03:11:15;4.50;99.90
37412;DHT22;23278;52.110;6.050;2022-12-08T03:13:50;4.40;99.90
37412;DHT22;23278;52.110;6.050;2022-12-08T03:16:21;4.50;99.90
37412;DHT22;23278;52.110;6.050;2022-12-08T03:18:51;4.40;99.90
37412;DHT22;23278;52.110;6.050;2022-12-08T03:21:20;4.40;99.90
37412;DHT22;23278;52.110;6.050;2022-12-08T03:23:49;4.40;99.90
37412;DHT22;23278;52.110;6.050;2022-12-08T03:26:29;4.40;99.90
37412;DHT22;23278;52.110;6.050;2022-12-08T03:28:56;4.40;99.90
37412;DHT22;23278;52.110;6.050;2022-12-08T03:31:26;4.50;99.90
37412;DHT22;23278;52.110;6.050;2022-12-08T03:33:55;4.40;99.90
37412;DHT22;23278;52.110;6.050;2022-12-08T03:36:23;4.40;99.90
37412;DHT22;23278;52.110;6.050;2022-12-08T03:38:51;4.50;99.90
37412;DHT22;23278;52.110;6.050;2022-12-08T03:41:18;4.50;99.90
37412;DHT22;23278;52.110;6.050;2022-12-08T03:43:50;4.50;99.90
37412;DHT22;23278;52.110;6.050;2022-12-08T03:46:16;4.50;99.90
37412;DHT22;23278;52.110;6.050;2022-12-08T03:48:43;4.60;99.90
37412;DHT22;23278;52.110;6.050;2022-12-08T03:51:09;4.60;99.90
37412;DHT22;23278;52.110;6.050;2022-12-08T03:53:35;4.60;99.90
37412;DHT22;23278;52.110;6.050;2022-12-08T03:56:10;4.70;99.90
37412;DHT22;23278;52.110;6.050;2022-12-08T03:58:39;4.70;99.90
37412;DHT22;23278;52.110;6.050;2022-12-08T04:01:05;4.80;99.90
37412;DHT22;23278;52.110;6.050;2022-12-08T04:03:31;4.70;99.90
37412;DHT22;23278;52.110;6.050;2022-12-08T04:05:56;4.80;99.90
37412;DHT22;23278;52.110;6.050;2022-12-08T04:08:22;4.80;99.90
37412;DHT22;23278;52.110;6.050;2022-12-08T04:10:48;4.80;99.90
37412;DHT22;23278;52.110;6.050;2022-12-08T04:13:14;4.80;99.90
37412;DHT22;23278;52.110;6.050;2022-12-08T04:15:44;4.80;99.90
37412;DHT22;23278;52.110;6.050;2022-12-08T04:18:10;4.90;99.90
37412;DHT22;23278;52.110;6.050;2022-12-08T04:20:38;4.90;99.90
37412;DHT22;23278;52.110;6.050;2022-12-08T04:23:05;4.90;99.90
37412;DHT22;23278;52.110;6.050;2022-12-08T04:25:31;5.00;99.90
37412;DHT22;23278;52.110;6.050;2022-12-08T04:27:57;4.90;99.90
37412;DHT22;23278;52.110;6.050;2022-12-08T04:30:23;4.90;99.90
37412;DHT22;23278;52.110;6.050;2022-12-08T04:32:49;4.90;99.90
37412;DHT22;23278;52.110;6.050;2022-12-08T04:35:15;4.90;99.90
37412;DHT22;23278;52.110;6.050;2022-12-08T04:37:42;4.90;99.90
37412;DHT22;23278;52.110;6.050;2022-12-08T04:40:10;4.90;99.90
37412;DHT22;23278;52.110;6.050;2022-12-08T04:42:36;4.90;99.90
37412;DHT22;23278;52.110;6.050;2022-12-08T04:45:03;4.80;99.90
37412;DHT22;23278;52.110;6.050;2022-12-08T04:47:29;4.90;99.90
37412;DHT22;23278;52.110;6.050;2022-12-08T04:49:55;4.80;99.90
37412;DHT22;23278;52.110;6.050;2022-12-08T04:52:21;4.80;99.90
37412;DHT22;23278;52.110;6.050;2022-12-08T04:54:47;4.80;99.90
37412;DHT22;23278;52.110;6.050;2022-12-08T04:57:13;4.80;99.90
37412;DHT22;23278;52.110;6.050;2022-12-08T04:59:39;4.80;99.90
37412;DHT22;23278;52.110;6.050;2022-12-08T05:02:05;4.80;99.90
37412;DHT22;23278;52.110;6.050;2022-12-08T05:04:31;4.80;99.90
37412;DHT22;23278;52.110;6.050;2022-12-08T05:06:57;4.80;99.90
37412;DHT22;23278;52.110;6.050;2022-12-08T05:09:23;4.80;99.90
37412;DHT22;23278;52.110;6.050;2022-12-08T05:11:49;4.70;99.90
37412;DHT22;23278;52.110;6.050;2022-12-08T05:14:17;4.70;99.90
37412;DHT22;23278;52.110;6.050;2022-12-08T05:16:44;4.70;99.90
37412;DHT22;23278;52.110;6.050;2022-12-08T05:19:10;4.60;99.90
37412;DHT22;23278;52.110;6.050;2022-12-08T05:21:36;4.60;99.90
37412;DHT22;23278;52.110;6.050;2022-12-08T05:24:02;4.50;99.90
37412;DHT22;23278;52.110;6.050;2022-12-08T05:26:28;4.50;99.90
37412;DHT22;23278;52.110;6.050;2022-12-08T05:28:54;4.50;99.90
37412;DHT22;23278;52.110;6.050;2022-12-08T05:31:20;4.50;99.90
37412;DHT22;23278;52.110;6.050;2022-12-08T05:33:48;4.40;99.90
37412;DHT22;23278;52.110;6.050;2022-12-08T05:36:15;4.40;99.90
37412;DHT22;23278;52.110;6.050;2022-12-08T05:38:42;4.40;99.90
37412;DHT22;23278;52.110;6.050;2022-12-08T05:41:10;4.40;99.90
37412;DHT22;23278;52.110;6.050;2022-12-08T05:43:38;4.40;99.90
37412;DHT22;23278;52.110;6.050;2022-12-08T05:46:04;4.40;99.90
37412;DHT22;23278;52.110;6.050;2022-12-08T05:48:30;4.40;99.90
37412;DHT22;23278;52.110;6.050;2022-12-08T05:50:55;4.40;99.90
37412;DHT22;23278;52.110;6.050;2022-12-08T05:53:21;4.50;99.90
37412;DHT22;23278;52.110;6.050;2022-12-08T05:55:47;4.50;99.90
37412;DHT22;23278;52.110;6.050;2022-12-08T05:58:19;4.50;99.90
37412;DHT22;23278;52.110;6.050;2022-12-08T06:00:45;4.50;99.90
37412;DHT22;23278;52.110;6.050;2022-12-08T06:03:13;4.50;99.90
37412;DHT22;23278;52.110;6.050;2022-12-08T06:05:44;4.60;99.90
37412;DHT22;23278;52.110;6.050;2022-12-08T06:08:10;4.60;99.90
37412;DHT22;23278;52.110;6.050;2022-12-08T06:10:38;4.60;99.90
37412;DHT22;23278;52.110;6.050;2022-12-08T06:13:04;4.60;99.90
37412;DHT22;23278;52.110;6.050;2022-12-08T06:15:30;4.60;99.90
37412;DHT22;23278;52.110;6.050;2022-12-08T06:17:56;4.60;99.90
37412;DHT22;23278;52.110;6.050;2022-12-08T06:20:22;4.60;99.90
37412;DHT22;23278;52.110;6.050;2022-12-08T06:22:47;4.60;99.90
37412;DHT22;23278;52.110;6.050;2022-12-08T06:25:13;4.60;99.90
37412;DHT22;23278;52.110;6.050;2022-12-08T06:27:39;4.60;99.90
37412;DHT22;23278;52.110;6.050;2022-12-08T06:30:06;4.60;99.90
37412;DHT22;23278;52.110;6.050;2022-12-08T06:32:32;4.60;99.90
37412;DHT22;23278;52.110;6.050;2022-12-08T06:34:57;4.70;99.90
37412;DHT22;23278;52.110;6.050;2022-12-08T06:37:23;4.70;99.90
37412;DHT22;23278;52.110;6.050;2022-12-08T06:39:49;4.70;99.90
37412;DHT22;23278;52.110;6.050;2022-12-08T06:42:16;4.70;99.90
37412;DHT22;23278;52.110;6.050;2022-12-08T06:45:00;4.70;99.90
37412;DHT22;23278;52.110;6.050;2022-12-08T06:47:26;4.70;99.90
37412;DHT22;23278;52.110;6.050;2022-12-08T06:49:52;4.70;99.90
37412;DHT22;23278;52.110;6.050;2022-12-08T06:52:18;4.70;99.90
37412;DHT22;23278;52.110;6.050;2022-12-08T06:54:44;4.70;99.90
37412;DHT22;23278;52.110;6.050;2022-12-08T06:57:10;4.70;99.90
37412;DHT22;23278;52.110;6.050;2022-12-08T06:59:37;4.70;99.90
37412;DHT22;23278;52.110;6.050;2022-12-08T07:02:03;4.70;99.90
37412;DHT22;23278;52.110;6.050;2022-12-08T07:04:29;4.60;99.90
37412;DHT22;23278;52.110;6.050;2022-12-08T07:06:55;4.60;99.90
37412;DHT22;23278;52.110;6.050;2022-12-08T07:09:21;4.60;99.90
37412;DHT22;23278;52.110;6.050;2022-12-08T07:11:47;4.50;99.90
37412;DHT22;23278;52.110;6.050;2022-12-08T07:14:13;4.50;99.90
37412;DHT22;23278;52.110;6.050;2022-12-08T07:16:39;4.50;99.90
37412;DHT22;23278;52.110;6.050;2022-12-08T07:19:05;4.50;99.90
37412;DHT22;23278;52.110;6.050;2022-12-08T07:21:31;4.40;99.90
37412;DHT22;23278;52.110;6.050;2022-12-08T07:23:57;4.40;99.90
37412;DHT22;23278;52.110;6.050;2022-12-08T07:26:23;4.40;99.90
37412;DHT22;23278;52.110;6.050;2022-12-08T07:28:49;4.40;99.90
37412;DHT22;23278;52.110;6.050;2022-12-08T07:31:18;4.30;99.90
37412;DHT22;23278;52.110;6.050;2022-12-08T07:33:45;4.30;99.90
37412;DHT22;23278;52.110;6.050;2022-12-08T07:36:11;4.30;99.90
37412;DHT22;23278;52.110;6.050;2022-12-08T07:38:37;4.30;99.90
37412;DHT22;23278;52.110;6.050;2022-12-08T07:41:03;4.30;99.90
37412;DHT22;23278;52.110;6.050;2022-12-08T07:43:29;4.30;99.90
37412;DHT22;23278;52.110;6.050;2022-12-08T07:45:55;4.30;99.90
37412;DHT22;23278;52.110;6.050;2022-12-08T07:48:21;4.30;99.90
37412;DHT22;23278;52.110;6.050;2022-12-08T07:50:47;4.30;99.90
37412;DHT22;23278;52.110;6.050;2022-12-08T07:53:13;4.40;99.90
37412;DHT22;23278;52.110;6.050;2022-12-08T07:55:42;4.30;99.90
37412;DHT22;23278;52.110;6.050;2022-12-08T07:58:09;4.30;99.90
37412;DHT22;23278;52.110;6.050;2022-12-08T08:00:35;4.40;99.90
37412;DHT22;23278;52.110;6.050;2022-12-08T08:03:01;4.30;99.90
37412;DHT22;23278;52.110;6.050;2022-12-08T08:05:28;4.30;99.90
37412;DHT22;23278;52.110;6.050;2022-12-08T08:07:54;4.30;99.90
37412;DHT22;23278;52.110;6.050;2022-12-08T08:10:20;4.40;99.90
37412;DHT22;23278;52.110;6.050;2022-12-08T08:12:45;4.40;99.90
37412;DHT22;23278;52.110;6.050;2022-12-08T08:15:12;4.40;99.90
37412;DHT22;23278;52.110;6.050;2022-12-08T08:17:38;4.40;99.90
37412;DHT22;23278;52.110;6.050;2022-12-08T08:20:06;4.40;99.90
37412;DHT22;23278;52.110;6.050;2022-12-08T08:22:33;4.40;99.90
37412;DHT22;23278;52.110;6.050;2022-12-08T08:24:59;4.50;99.90
37412;DHT22;23278;52.110;6.050;2022-12-08T08:27:25;4.50;99.90
37412;DHT22;23278;52.110;6.050;2022-12-08T08:29:52;4.50;99.90
37412;DHT22;23278;52.110;6.050;2022-12-08T08:32:18;4.60;99.90
37412;DHT22;23278;52.110;6.050;2022-12-08T08:34:44;4.60;99.90
37412;DHT22;23278;52.110;6.050;2022-12-08T08:37:10;4.60;99.90
37412;DHT22;23278;52.110;6.050;2022-12-08T08:39:36;4.60;99.90
37412;DHT22;23278;52.110;6.050;2022-12-08T08:42:02;4.70;99.90
37412;DHT22;23278;52.110;6.050;2022-12-08T08:44:28;4.70;99.90
37412;DHT22;23278;52.110;6.050;2022-12-08T08:46:54;4.70;99.90
37412;DHT22;23278;52.110;6.050;2022-12-08T08:49:20;4.70;99.90
37412;DHT22;23278;52.110;6.050;2022-12-08T08:51:46;4.80;99.90
37412;DHT22;23278;52.110;6.050;2022-12-08T08:54:12;4.80;99.90
37412;DHT22;23278;52.110;6.050;2022-12-08T08:56:38;4.80;99.90
37412;DHT22;23278;52.110;6.050;2022-12-08T08:59:04;4.80;99.90
37412;DHT22;23278;52.110;6.050;2022-12-08T09:01:30;4.80;99.90
37412;DHT22;23278;52.110;6.050;2022-12-08T09:03:56;4.80;99.90
37412;DHT22;23278;52.110;6.050;2022-12-08T09:06:23;4.80;99.90
37412;DHT22;23278;52.110;6.050;2022-12-08T09:08:49;4.90;99.90
37412;DHT22;23278;52.110;6.050;2022-12-08T09:11:16;4.90;99.90
37412;DHT22;23278;52.110;6.050;2022-12-08T09:13:43;5.00;99.90
37412;DHT22;23278;52.110;6.050;2022-12-08T09:16:12;5.00;99.90
37412;DHT22;23278;52.110;6.050;2022-12-08T09:18:38;5.00;99.90
37412;DHT22;23278;52.110;6.050;2022-12-08T09:21:09;5.00;99.90
37412;DHT22;23278;52.110;6.050;2022-12-08T09:23:38;5.00;99.90
37412;DHT22;23278;52.110;6.050;2022-12-08T09:26:04;5.00;99.90
37412;DHT22;23278;52.110;6.050;2022-12-08T09:28:30;5.00;99.90
37412;DHT22;23278;52.110;6.050;2022-12-08T09:30:57;5.10;99.90
37412;DHT22;23278;52.110;6.050;2022-12-08T09:33:24;5.10;99.90
37412;DHT22;23278;52.110;6.050;2022-12-08T09:35:50;5.00;99.90
37412;DHT22;23278;52.110;6.050;2022-12-08T09:38:16;5.00;99.90
37412;DHT22;23278;52.110;6.050;2022-12-08T09:40:49;5.10;99.90
37412;DHT22;23278;52.110;6.050;2022-12-08T09:46:20;5.10;99.90
37412;DHT22;23278;52.110;6.050;2022-12-08T09:48:53;5.10;99.90
37412;DHT22;23278;52.110;6.050;2022-12-08T09:51:23;5.10;99.90
37412;DHT22;23278;52.110;6.050;2022-12-08T09:54:03;5.20;99.90
37412;DHT22;23278;52.110;6.050;2022-12-08T09:56:35;5.20;99.90
37412;DHT22;23278;52.110;6.050;2022-12-08T09:59:11;5.20;99.90
37412;DHT22;23278;52.110;6.050;2022-12-08T10:01:41;5.30;99.90
37412;DHT22;23278;52.110;6.050;2022-12-08T10:04:31;5.30;99.90
37412;DHT22;23278;52.110;6.050;2022-12-08T10:13:23;5.40;99.90
37412;DHT22;23278;52.110;6.050;2022-12-08T10:17:11;5.40;99.90
37412;DHT22;23278;52.110;6.050;2022-12-08T10:19:20;5.50;99.90
37412;DHT22;23278;52.110;6.050;2022-12-08T10:21:49;5.50;99.90
37412;DHT22;23278;52.110;6.050;2022-12-08T10:24:38;5.50;99.90
37412;DHT22;23278;52.110;6.050;2022-12-08T10:27:11;5.60;99.90
37412;DHT22;23278;52.110;6.050;2022-12-08T10:29:38;5.50;99.90
37412;DHT22;23278;52.110;6.050;2022-12-08T10:32:22;5.50;99.90
37412;DHT22;23278;52.110;6.050;2022-12-08T10:35:17;5.60;99.90
37412;DHT22;23278;52.110;6.050;2022-12-08T10:38:02;5.60;99.90
37412;DHT22;23278;52.110;6.050;2022-12-08T10:40:35;5.60;99.90
37412;DHT22;23278;52.110;6.050;2022-12-08T10:43:02;5.60;99.90
37412;DHT22;23278;52.110;6.050;2022-12-08T10:45:37;5.60;99.90
37412;DHT22;23278;52.110;6.050;2022-12-08T10:48:25;5.60;99.90
37412;DHT22;23278;52.110;6.050;2022-12-08T10:53:26;5.60;99.90
37412;DHT22;23278;52.110;6.050;2022-12-08T10:56:05;5.60;99.90
37412;DHT22;23278;52.110;6.050;2022-12-08T10:58:37;5.60;99.90
37412;DHT22;23278;52.110;6.050;2022-12-08T11:01:23;5.70;99.90
37412;DHT22;23278;52.110;6.050;2022-12-08T11:03:53;5.70;99.90
37412;DHT22;23278;52.110;6.050;2022-12-08T11:08:58;5.70;99.90
37412;DHT22;23278;52.110;6.050;2022-12-08T11:11:55;5.70;99.90
37412;DHT22;23278;52.110;6.050;2022-12-08T11:14:30;5.80;99.90
37412;DHT22;23278;52.110;6.050;2022-12-08T11:17:09;5.80;99.90
37412;DHT22;23278;52.110;6.050;2022-12-08T11:19:42;5.80;99.90
37412;DHT22;23278;52.110;6.050;2022-12-08T11:22:21;5.80;99.90
37412;DHT22;23278;52.110;6.050;2022-12-08T11:25:08;5.90;99.90
37412;DHT22;23278;52.110;6.050;2022-12-08T11:27:39;6.00;99.90
37412;DHT22;23278;52.110;6.050;2022-12-08T11:32:45;6.00;99.90
37412;DHT22;23278;52.110;6.050;2022-12-08T11:37:44;6.10;99.90
37412;DHT22;23278;52.110;6.050;2022-12-08T11:40:20;6.10;99.90
37412;DHT22;23278;52.110;6.050;2022-12-08T11:43:15;6.10;99.90
37412;DHT22;23278;52.110;6.050;2022-12-08T11:45:43;6.10;99.90
37412;DHT22;23278;52.110;6.050;2022-12-08T11:48:26;6.10;99.90
37412;DHT22;23278;52.110;6.050;2022-12-08T11:51:02;6.10;99.90
37412;DHT22;23278;52.110;6.050;2022-12-08T11:53:43;6.10;99.90
37412;DHT22;23278;52.110;6.050;2022-12-08T11:56:19;6.20;99.90
37412;DHT22;23278;52.110;6.050;2022-12-08T11:59:13;6.10;99.90
37412;DHT22;23278;52.110;6.050;2022-12-08T12:01:35;6.20;99.90
37412;DHT22;23278;52.110;6.050;2022-12-08T12:09:35;6.20;99.90
37412;DHT22;23278;52.110;6.050;2022-12-08T12:18:28;6.10;99.90
37412;DHT22;23278;52.110;6.050;2022-12-08T12:21:04;6.00;99.90
37412;DHT22;23278;52.110;6.050;2022-12-08T12:23:36;5.90;99.90
37412;DHT22;23278;52.110;6.050;2022-12-08T12:26:06;5.90;99.90
37412;DHT22;23278;52.110;6.050;2022-12-08T12:28:47;5.90;99.90
37412;DHT22;23278;52.110;6.050;2022-12-08T12:31:16;5.90;99.90
37412;DHT22;23278;52.110;6.050;2022-12-08T12:33:45;5.90;99.90
37412;DHT22;23278;52.110;6.050;2022-12-08T12:36:13;5.90;99.90
37412;DHT22;23278;52.110;6.050;2022-12-08T12:55:17;5.80;99.90
37412;DHT22;23278;52.110;6.050;2022-12-08T12:57:54;5.80;99.90
37412;DHT22;23278;52.110;6.050;2022-12-08T13:00:25;5.80;99.90
37412;DHT22;23278;52.110;6.050;2022-12-08T13:02:53;5.80;99.90
37412;DHT22;23278;52.110;6.050;2022-12-08T13:05:26;5.80;99.90
37412;DHT22;23278;52.110;6.050;2022-12-08T13:07:59;5.90;99.90
37412;DHT22;23278;52.110;6.050;2022-12-08T13:15:33;5.70;99.90
37412;DHT22;23278;52.110;6.050;2022-12-08T13:18:00;5.70;99.90
37412;DHT22;23278;52.110;6.050;2022-12-08T13:20:26;5.60;99.90
37412;DHT22;23278;52.110;6.050;2022-12-08T13:30:43;5.60;99.90
37412;DHT22;23278;52.110;6.050;2022-12-08T13:33:32;5.50;99.90
37412;DHT22;23278;52.110;6.050;2022-12-08T13:38:44;5.60;99.90
37412;DHT22;23278;52.110;6.050;2022-12-08T13:41:21;5.80;99.90
37412;DHT22;23278;52.110;6.050;2022-12-08T13:43:59;6.00;99.90
37412;DHT22;23278;52.110;6.050;2022-12-08T13:46:33;6.20;99.90
37412;DHT22;23278;52.110;6.050;2022-12-08T13:48:59;6.40;99.90
37412;DHT22;23278;52.110;6.050;2022-12-08T13:51:38;6.50;99.90
37412;DHT22;23278;52.110;6.050;2022-12-08T13:54:24;6.60;99.90
37412;DHT22;23278;52.110;6.050;2022-12-08T13:56:52;6.70;99.90
37412;DHT22;23278;52.110;6.050;2022-12-08T14:01:47;6.70;99.90
37412;DHT22;23278;52.110;6.050;2022-12-08T14:04:15;6.60;99.90
37412;DHT22;23278;52.110;6.050;2022-12-08T14:06:45;6.50;99.90
37412;DHT22;23278;52.110;6.050;2022-12-08T14:09:19;6.40;99.90
37412;DHT22;23278;52.110;6.050;2022-12-08T14:11:51;6.30;99.90
37412;DHT22;23278;52.110;6.050;2022-12-08T14:17:05;6.10;99.90
37412;DHT22;23278;52.110;6.050;2022-12-08T14:19:33;6.00;99.90
37412;DHT22;23278;52.110;6.050;2022-12-08T14:22:14;6.00;99.90
37412;DHT22;23278;52.110;6.050;2022-12-08T14:24:49;6.00;99.90
37412;DHT22;23278;52.110;6.050;2022-12-08T14:27:26;5.90;99.90
37412;DHT22;23278;52.110;6.050;2022-12-08T14:29:56;5.80;99.90
37412;DHT22;23278;52.110;6.050;2022-12-08T14:32:38;5.70;99.90
37412;DHT22;23278;52.110;6.050;2022-12-08T14:37:43;5.60;99.90
37412;DHT22;23278;52.110;6.050;2022-12-08T14:42:45;5.50;99.90
37412;DHT22;23278;52.110;6.050;2022-12-08T14:45:14;5.40;99.90
37412;DHT22;23278;52.110;6.050;2022-12-08T14:47:41;5.20;99.90
37412;DHT22;23278;52.110;6.050;2022-12-08T14:50:35;5.20;99.90
37412;DHT22;23278;52.110;6.050;2022-12-08T14:53:02;5.20;99.90
37412;DHT22;23278;52.110;6.050;2022-12-08T14:55:34;5.40;99.90
37412;DHT22;23278;52.110;6.050;2022-12-08T14:58:01;5.40;99.90
37412;DHT22;23278;52.110;6.050;2022-12-08T15:00:27;5.30;99.90
37412;DHT22;23278;52.110;6.050;2022-12-08T15:02:54;5.20;99.90
37412;DHT22;23278;52.110;6.050;2022-12-08T15:05:31;5.00;99.90
37412;DHT22;23278;52.110;6.050;2022-12-08T15:08:01;4.90;99.90
37412;DHT22;23278;52.110;6.050;2022-12-08T15:10:34;4.70;99.90
37412;DHT22;23278;52.110;6.050;2022-12-08T15:15:54;4.40;99.90
37412;DHT22;23278;52.110;6.050;2022-12-08T15:18:38;4.30;99.90
37412;DHT22;23278;52.110;6.050;2022-12-08T15:21:06;4.20;99.90
37412;DHT22;23278;52.110;6.050;2022-12-08T15:23:42;4.10;99.90
37412;DHT22;23278;52.110;6.050;2022-12-08T15:26:24;4.00;99.90
37412;DHT22;23278;52.110;6.050;2022-12-08T15:28:51;3.90;99.90
37412;DHT22;23278;52.110;6.050;2022-12-08T15:31:17;3.80;99.90
37412;DHT22;23278;52.110;6.050;2022-12-08T15:33:44;3.70;99.90
37412;DHT22;23278;52.110;6.050;2022-12-08T15:36:10;3.70;99.90
37412;DHT22;23278;52.110;6.050;2022-12-08T15:38:36;3.60;99.90
37412;DHT22;23278;52.110;6.050;2022-12-08T15:41:03;3.50;99.90
37412;DHT22;23278;52.110;6.050;2022-12-08T15:43:30;3.40;99.90
37412;DHT22;23278;52.110;6.050;2022-12-08T15:45:56;3.40;99.90
37412;DHT22;23278;52.110;6.050;2022-12-08T15:48:32;3.40;99.90
37412;DHT22;23278;52.110;6.050;2022-12-08T15:50:58;3.40;99.90
37412;DHT22;23278;52.110;6.050;2022-12-08T15:53:24;3.50;99.90
37412;DHT22;23278;52.110;6.050;2022-12-08T15:55:50;3.50;99.90
37412;DHT22;23278;52.110;6.050;2022-12-08T15:58:22;3.50;99.90
37412;DHT22;23278;52.110;6.050;2022-12-08T16:00:48;3.40;99.90
37412;DHT22;23278;52.110;6.050;2022-12-08T16:03:32;3.40;99.90
37412;DHT22;23278;52.110;6.050;2022-12-08T16:05:59;3.30;99.90
37412;DHT22;23278;52.110;6.050;2022-12-08T16:08:29;3.40;99.90
37412;DHT22;23278;52.110;6.050;2022-12-08T16:10:55;3.40;99.90
37412;DHT22;23278;52.110;6.050;2022-12-08T16:13:40;3.40;99.90
37412;DHT22;23278;52.110;6.050;2022-12-08T16:16:16;3.40;99.90
37412;DHT22;23278;52.110;6.050;2022-12-08T16:18:47;3.50;99.90
37412;DHT22;23278;52.110;6.050;2022-12-08T16:21:13;3.50;99.90
37412;DHT22;23278;52.110;6.050;2022-12-08T16:23:40;3.60;99.90
37412;DHT22;23278;52.110;6.050;2022-12-08T16:26:13;3.70;99.90
37412;DHT22;23278;52.110;6.050;2022-12-08T16:28:40;3.70;99.90
37412;DHT22;23278;52.110;6.050;2022-12-08T16:31:08;3.70;99.90
37412;DHT22;23278;52.110;6.050;2022-12-08T16:33:33;3.70;99.90
37412;DHT22;23278;52.110;6.050;2022-12-08T16:35:59;3.80;99.90
37412;DHT22;23278;52.110;6.050;2022-12-08T16:38:25;3.80;99.90
37412;DHT22;23278;52.110;6.050;2022-12-08T16:40:51;3.80;99.90
37412;DHT22;23278;52.110;6.050;2022-12-08T16:43:35;3.90;99.90
37412;DHT22;23278;52.110;6.050;2022-12-08T16:46:02;3.90;99.90
37412;DHT22;23278;52.110;6.050;2022-12-08T16:48:28;3.90;99.90
37412;DHT22;23278;52.110;6.050;2022-12-08T16:50:55;3.90;99.90
37412;DHT22;23278;52.110;6.050;2022-12-08T16:53:21;3.90;99.90
37412;DHT22;23278;52.110;6.050;2022-12-08T16:55:49;4.00;99.90
37412;DHT22;23278;52.110;6.050;2022-12-08T16:58:15;4.00;99.90
37412;DHT22;23278;52.110;6.050;2022-12-08T17:00:43;4.00;99.90
37412;DHT22;23278;52.110;6.050;2022-12-08T17:03:10;4.10;99.90
37412;DHT22;23278;52.110;6.050;2022-12-08T17:05:39;4.10;99.90
37412;DHT22;23278;52.110;6.050;2022-12-08T17:08:05;4.20;99.90
37412;DHT22;23278;52.110;6.050;2022-12-08T17:10:31;4.20;99.90
37412;DHT22;23278;52.110;6.050;2022-12-08T17:13:00;4.30;99.90
37412;DHT22;23278;52.110;6.050;2022-12-08T17:15:27;4.30;99.90
37412;DHT22;23278;52.110;6.050;2022-12-08T17:17:53;4.40;99.90
37412;DHT22;23278;52.110;6.050;2022-12-08T17:20:24;4.30;99.90
37412;DHT22;23278;52.110;6.050;2022-12-08T17:22:53;4.30;99.90
37412;DHT22;23278;52.110;6.050;2022-12-08T17:25:20;4.30;99.90
37412;DHT22;23278;52.110;6.050;2022-12-08T17:27:46;4.20;99.90
37412;DHT22;23278;52.110;6.050;2022-12-08T17:30:12;4.30;99.90
37412;DHT22;23278;52.110;6.050;2022-12-08T17:32:40;4.30;99.90
37412;DHT22;23278;52.110;6.050;2022-12-08T17:35:07;4.30;99.90
37412;DHT22;23278;52.110;6.050;2022-12-08T17:37:33;4.20;99.90
37412;DHT22;23278;52.110;6.050;2022-12-08T17:39:59;4.10;99.90
37412;DHT22;23278;52.110;6.050;2022-12-08T17:42:25;4.00;99.90
37412;DHT22;23278;52.110;6.050;2022-12-08T17:44:52;3.90;99.90
37412;DHT22;23278;52.110;6.050;2022-12-08T17:47:18;3.80;99.90
37412;DHT22;23278;52.110;6.050;2022-12-08T17:49:44;3.90;99.90